Aviation Digital Data Service (ADDS)

Output produced by METARs form (1734 UTC 27 May 2017)
found at http://www.aviationweather.gov/adds/metars/
 
TAF SYCJ 271700Z 2718/2818 09008KT 040V130 5000 TSRA FEW015CB BKN017 BKN038 
     BECMG 2723/2802 05006KT 9999 BKN016 BKN040
       
TAF SYKM 271045Z 2712/2723 04006KT 999 BKN018 SCT038 
     TEMPO 2717/2723 5000 SHRA FEW012CB BKN015 BKN040
       
TAF SYLT 271045Z 2712/2723 07014KT 9999 BKN022 SCT038